createdAt,value
2023-11-12T00:00:11.135Z,76.16
2023-11-12T00:02:41.043Z,80.77
2023-11-12T00:05:13.294Z,83.02
2023-11-12T00:07:42.617Z,81.69
2023-11-12T00:10:13.570Z,80.66
2023-11-12T00:12:42.415Z,78.55
2023-11-12T00:15:11.667Z,76.73
2023-11-12T00:17:43.298Z,76.03
2023-11-12T00:20:14.380Z,76.14
2023-11-12T00:22:45.410Z,77.43
2023-11-12T00:25:15.173Z,81.78
2023-11-12T00:27:43.803Z,81.69
2023-11-12T00:30:12.920Z,81.07
2023-11-12T00:32:42.831Z,79.25
2023-11-12T00:35:13.529Z,81.36
2023-11-12T00:37:42.011Z,81.10
2023-11-12T00:40:12.380Z,80.97
2023-11-12T00:42:40.844Z,81.74
2023-11-12T00:45:10.767Z,82.44
2023-11-12T00:47:39.202Z,81.38
2023-11-12T00:50:11.298Z,80.70
2023-11-12T00:52:39.775Z,81.74
2023-11-12T00:55:08.816Z,81.15
2023-11-12T00:57:37.391Z,80.50
2023-11-12T01:00:07.280Z,80.85
2023-11-12T01:02:35.821Z,79.13
2023-11-12T01:05:04.624Z,78.01
2023-11-12T01:07:34.447Z,78.86
2023-11-12T01:10:03.010Z,80.54
2023-11-12T01:12:31.638Z,79.16
2023-11-12T01:15:00.202Z,79.12
2023-11-12T01:17:29.178Z,78.70
2023-11-12T01:19:57.867Z,78.59
2023-11-12T01:22:26.330Z,78.27
2023-11-12T01:24:56.221Z,78.73
2023-11-12T01:27:24.850Z,78.23
2023-11-12T01:29:53.282Z,78.74
2023-11-12T01:32:21.776Z,76.80
2023-11-12T01:34:50.243Z,77.35
2023-11-12T01:37:18.719Z,78.50
2023-11-12T01:39:48.396Z,78.82
2023-11-12T01:42:18.217Z,76.70
2023-11-12T01:44:46.784Z,76.11
2023-11-12T01:47:18.288Z,77.43
2023-11-12T01:49:46.869Z,77.39
2023-11-12T01:52:18.998Z,77.83
2023-11-12T01:54:47.560Z,79.55
2023-11-12T01:57:17.567Z,78.77
2023-11-12T01:59:46.069Z,79.70
2023-11-12T02:02:15.080Z,80.22
2023-11-12T02:04:44.395Z,77.46
2023-11-12T02:07:13.913Z,77.47
2023-11-12T02:09:42.566Z,75.99
2023-11-12T02:12:11.555Z,76.78
2023-11-12T02:14:41.601Z,78.35
2023-11-12T02:17:10.027Z,80.03
2023-11-12T02:19:38.495Z,82.95
2023-11-12T02:22:06.982Z,85.68
2023-11-12T02:24:36.967Z,85.74
2023-11-12T02:27:05.447Z,84.60
2023-11-12T02:29:33.875Z,83.96
2023-11-12T02:32:02.382Z,84.17
2023-11-12T02:34:31.293Z,83.82
2023-11-12T02:36:59.676Z,84.00
2023-11-12T02:39:28.147Z,83.46
2023-11-12T02:42:00.110Z,84.64
2023-11-12T02:44:28.495Z,83.70
2023-11-12T02:46:56.920Z,82.72
2023-11-12T02:49:43.897Z,81.62
2023-11-12T02:52:12.434Z,81.85
2023-11-12T02:54:40.918Z,82.54
2023-11-12T02:57:11.741Z,81.65
2023-11-12T02:59:40.850Z,80.44
2023-11-12T03:02:09.292Z,82.70
2023-11-12T03:04:37.718Z,84.25
2023-11-12T03:07:06.420Z,82.94
2023-11-12T03:09:35.321Z,83.45
2023-11-12T03:12:04.265Z,82.90
2023-11-12T03:14:34.871Z,82.90
2023-11-12T03:17:03.223Z,84.13
2023-11-12T03:19:31.655Z,84.67
2023-11-12T03:22:00.183Z,83.09
2023-11-12T03:24:28.684Z,83.05
2023-11-12T03:26:57.049Z,81.87
2023-11-12T03:29:25.512Z,82.09
2023-11-12T03:31:56.352Z,82.17
2023-11-12T03:34:26.143Z,83.76
2023-11-12T03:36:54.701Z,83.71
2023-11-12T03:39:24.107Z,87.35
2023-11-12T03:41:53.206Z,87.12
2023-11-12T03:44:21.662Z,86.05
2023-11-12T03:46:50.153Z,86.93
2023-11-12T03:49:20.513Z,87.11
2023-11-12T03:51:49.223Z,86.51
2023-11-12T03:54:17.916Z,84.73
2023-11-12T03:56:46.317Z,84.42
2023-11-12T03:59:14.736Z,84.55
2023-11-12T04:01:43.072Z,84.48
2023-11-12T04:04:11.657Z,83.25
2023-11-12T04:06:41.559Z,83.98
2023-11-12T04:09:10.290Z,85.08
2023-11-12T04:11:41.664Z,84.13
2023-11-12T04:14:10.672Z,84.23
2023-11-12T04:16:39.207Z,85.44
2023-11-12T04:19:08.844Z,87.23
2023-11-12T04:21:37.758Z,84.99
2023-11-12T04:24:09.285Z,85.51
2023-11-12T04:26:37.847Z,84.68
2023-11-12T04:29:08.620Z,83.34
2023-11-12T04:31:37.963Z,84.83
2023-11-12T04:34:06.672Z,83.85
2023-11-12T04:36:37.212Z,83.73
2023-11-12T04:39:07.293Z,83.49
2023-11-12T04:41:37.464Z,83.20
2023-11-12T04:44:06.739Z,83.78
2023-11-12T04:46:35.156Z,83.21
2023-11-12T04:49:03.626Z,82.52
2023-11-12T04:51:34.155Z,82.82
2023-11-12T04:54:03.835Z,82.46
2023-11-12T04:56:32.276Z,82.79
2023-11-12T04:59:02.116Z,82.86
2023-11-12T05:01:31.812Z,85.07
2023-11-12T05:04:00.503Z,83.84
2023-11-12T05:06:30.997Z,83.10
2023-11-12T05:08:59.668Z,87.71
2023-11-12T05:11:28.245Z,90.63
2023-11-12T05:13:56.934Z,90.34
2023-11-12T05:16:26.783Z,89.61
2023-11-12T05:18:55.337Z,87.73
2023-11-12T05:21:23.850Z,88.82
2023-11-12T05:23:52.273Z,89.44
2023-11-12T05:26:20.655Z,88.58
2023-11-12T05:28:49.289Z,89.26
2023-11-12T05:31:17.819Z,90.19
2023-11-12T05:33:47.758Z,89.47
2023-11-12T05:36:16.134Z,89.03
2023-11-12T05:38:44.447Z,88.98
2023-11-12T05:41:13.063Z,91.45
2023-11-12T05:43:41.457Z,90.97
2023-11-12T05:46:10.215Z,89.63
2023-11-12T05:48:38.703Z,90.63
2023-11-12T05:51:10.527Z,89.29
2023-11-12T05:53:39.430Z,87.68
2023-11-12T05:56:08.805Z,86.41
2023-11-12T05:58:37.154Z,85.35
2023-11-12T06:01:05.848Z,83.27
2023-11-12T06:03:34.332Z,81.54
2023-11-12T06:06:02.838Z,80.16
2023-11-12T06:08:32.823Z,74.94
2023-11-12T06:11:02.729Z,74.67
2023-11-12T06:13:31.065Z,71.99
2023-11-12T06:15:59.886Z,70.10
2023-11-12T06:18:28.816Z,72.18
2023-11-12T06:20:57.283Z,72.52
2023-11-12T06:23:26.146Z,71.55
2023-11-12T06:25:56.039Z,70.20
2023-11-12T06:28:24.747Z,68.38
2023-11-12T06:30:55.293Z,68.47
2023-11-12T06:33:23.921Z,66.55
2023-11-12T06:35:52.880Z,63.94
2023-11-12T06:38:21.347Z,63.72
2023-11-12T06:40:49.888Z,64.84
2023-11-12T06:43:19.618Z,65.33
2023-11-12T06:45:48.169Z,64.57
2023-11-12T06:48:17.824Z,65.49
2023-11-12T06:50:46.292Z,68.43
2023-11-12T06:53:14.831Z,63.58
2023-11-12T06:55:43.429Z,65.24
2023-11-12T06:58:12.007Z,65.43
2023-11-12T07:00:42.963Z,64.30
2023-11-12T07:03:11.761Z,63.47
2023-11-12T07:05:40.306Z,63.50
2023-11-12T07:08:09.511Z,63.28
2023-11-12T07:10:39.257Z,62.69
2023-11-12T07:13:07.696Z,62.66
2023-11-12T07:15:36.256Z,60.98
2023-11-12T07:18:06.377Z,56.67
2023-11-12T07:20:34.906Z,53.98
2023-11-12T07:23:03.478Z,51.26
2023-11-12T07:25:32.187Z,54.43
2023-11-12T07:28:00.823Z,58.38
2023-11-12T07:30:29.318Z,60.52
2023-11-12T07:32:57.960Z,61.27
2023-11-12T07:35:28.195Z,63.00
2023-11-12T07:37:56.677Z,63.21
2023-11-12T07:40:27.635Z,63.63
2023-11-12T07:42:56.666Z,62.65
2023-11-12T07:45:31.695Z,61.66
2023-11-12T07:48:03.276Z,62.31
2023-11-12T07:50:33.330Z,63.73
2023-11-12T07:53:01.742Z,64.79
2023-11-12T07:55:32.784Z,64.65
2023-11-12T07:58:01.902Z,65.48
2023-11-12T08:00:30.398Z,66.45
2023-11-12T08:02:59.978Z,67.45
2023-11-12T08:05:28.526Z,67.10
2023-11-12T08:07:58.392Z,66.56
2023-11-12T08:10:26.765Z,66.08
2023-11-12T08:12:55.193Z,67.92
2023-11-12T08:15:23.820Z,69.91
2023-11-12T08:17:52.271Z,67.50
2023-11-12T08:20:20.711Z,67.34
2023-11-12T08:22:49.080Z,67.51
2023-11-12T08:25:18.927Z,64.98
2023-11-12T08:27:47.488Z,66.16
2023-11-12T08:30:16.410Z,67.14
2023-11-12T08:32:44.963Z,66.13
2023-11-12T08:35:14.103Z,64.45
2023-11-12T08:37:43.395Z,64.51
2023-11-12T08:40:13.063Z,64.45
2023-11-12T08:42:42.974Z,63.56
2023-11-12T08:45:11.710Z,62.17
2023-11-12T08:47:40.197Z,62.05
2023-11-12T08:50:09.473Z,62.96
2023-11-12T08:52:39.520Z,63.46
2023-11-12T08:55:08.905Z,64.42
2023-11-12T08:57:37.460Z,62.84
2023-11-12T09:00:09.488Z,62.98
2023-11-12T09:02:38.113Z,60.98
2023-11-12T09:05:07.261Z,61.09
2023-11-12T09:07:35.933Z,62.80
2023-11-12T09:10:05.953Z,62.68
2023-11-12T09:12:34.931Z,62.27
2023-11-12T09:15:03.679Z,60.40
2023-11-12T09:17:33.684Z,60.16
2023-11-12T09:20:02.169Z,60.97
2023-11-12T09:22:30.798Z,59.31
2023-11-12T09:25:08.859Z,58.96
2023-11-12T09:27:40.310Z,61.05
2023-11-12T09:30:10.532Z,59.85
2023-11-12T09:32:40.711Z,59.34
2023-11-12T09:35:10.721Z,60.67
2023-11-12T09:37:39.224Z,61.90
2023-11-12T09:40:11.565Z,58.36
2023-11-12T09:42:42.890Z,56.21
2023-11-12T09:45:12.373Z,58.10
2023-11-12T09:47:50.398Z,58.86
2023-11-12T09:50:21.726Z,58.76
2023-11-12T09:52:51.273Z,58.62
2023-11-12T09:55:21.142Z,59.10
2023-11-12T09:57:52.860Z,59.00
2023-11-12T10:00:21.643Z,57.40
2023-11-12T10:02:53.533Z,58.83
2023-11-12T10:05:22.828Z,56.03
2023-11-12T10:07:51.287Z,55.58
2023-11-12T10:10:23.748Z,54.79
2023-11-12T10:12:53.781Z,54.63
2023-11-12T10:15:26.608Z,54.50
2023-11-12T10:18:01.022Z,53.93
2023-11-12T10:20:32.626Z,55.77
2023-11-12T10:23:03.210Z,57.21
2023-11-12T10:25:41.598Z,55.41
2023-11-12T10:28:11.988Z,55.51
2023-11-12T10:30:40.984Z,54.71
2023-11-12T10:33:25.245Z,54.29
2023-11-12T10:35:56.031Z,52.08
2023-11-12T10:38:25.213Z,52.27
2023-11-12T10:41:02.184Z,52.53
2023-11-12T10:43:31.826Z,51.10
2023-11-12T10:46:01.888Z,51.08
2023-11-12T10:48:35.317Z,51.24
2023-11-12T10:51:07.099Z,51.33
2023-11-12T10:53:37.585Z,50.20
2023-11-12T10:56:08.078Z,49.71
2023-11-12T10:58:37.450Z,50.83
2023-11-12T11:01:08.931Z,48.86
2023-11-12T11:03:39.163Z,47.33
2023-11-12T11:06:09.774Z,47.34
2023-11-12T11:08:38.236Z,46.61
2023-11-12T11:11:11.486Z,44.82
2023-11-12T11:13:40.860Z,44.74
2023-11-12T11:16:11.380Z,44.56
2023-11-12T11:19:05.119Z,46.23
2023-11-12T11:21:33.602Z,47.79
2023-11-12T11:24:03.632Z,48.79
2023-11-12T11:26:40.364Z,49.47
2023-11-12T11:29:15.220Z,48.54
2023-11-12T11:32:18.763Z,49.76
2023-11-12T11:34:49.832Z,50.21
2023-11-12T11:37:20.991Z,50.56
2023-11-12T11:39:49.986Z,51.05
2023-11-12T11:42:19.007Z,50.32
2023-11-12T11:44:51.589Z,50.97
2023-11-12T11:47:24.647Z,51.60
2023-11-12T11:50:45.962Z,50.85
2023-11-12T11:53:16.501Z,51.53
2023-11-12T11:55:50.436Z,49.70
2023-11-12T11:58:22.613Z,49.57
2023-11-12T12:01:01.441Z,49.68
2023-11-12T12:03:30.681Z,51.50
2023-11-12T12:06:00.800Z,50.09
2023-11-12T12:08:29.565Z,51.56
2023-11-12T12:10:58.040Z,52.97
2023-11-12T12:13:28.161Z,51.16
2023-11-12T12:15:57.220Z,48.53
2023-11-12T12:18:26.655Z,49.78
2023-11-12T12:20:57.168Z,50.55
2023-11-12T12:23:27.514Z,50.33
2023-11-12T12:25:57.030Z,50.30
2023-11-12T12:28:31.641Z,51.99
2023-11-12T12:31:00.450Z,52.14
2023-11-12T12:33:28.934Z,53.07
2023-11-12T12:36:00.052Z,51.33
2023-11-12T12:38:29.965Z,52.57
2023-11-12T12:41:03.651Z,53.24
2023-11-12T12:43:46.893Z,52.97
2023-11-12T12:46:15.493Z,53.27
2023-11-12T12:48:54.080Z,54.39
2023-11-12T12:51:23.123Z,55.31
2023-11-12T12:53:54.037Z,56.66
2023-11-12T12:56:23.108Z,56.73
2023-11-12T12:58:51.611Z,57.36
2023-11-12T13:01:20.252Z,56.94
2023-11-12T13:03:49.795Z,56.93
2023-11-12T13:06:18.743Z,57.24
2023-11-12T13:08:48.983Z,56.92
2023-11-12T13:11:20.748Z,58.14
2023-11-12T13:13:51.468Z,57.43
2023-11-12T13:16:21.003Z,57.89
2023-11-12T13:18:49.708Z,58.46
2023-11-12T13:21:20.536Z,60.28
2023-11-12T13:23:50.626Z,59.42
2023-11-12T13:26:22.652Z,59.36
2023-11-12T13:28:53.442Z,59.59
2023-11-12T13:31:24.987Z,58.71
2023-11-12T13:33:53.614Z,58.93
2023-11-12T13:36:22.169Z,61.04
2023-11-12T13:38:50.566Z,60.22
2023-11-12T13:41:23.120Z,60.78
2023-11-12T13:43:53.055Z,62.38
2023-11-12T13:46:23.162Z,60.03
2023-11-12T13:48:54.699Z,61.80
2023-11-12T13:51:25.741Z,61.60
2023-11-12T13:53:55.041Z,63.85
2023-11-12T13:56:25.675Z,66.51
2023-11-12T13:58:56.184Z,66.14
2023-11-12T14:01:25.742Z,66.63
2023-11-12T14:03:54.431Z,66.56
2023-11-12T14:06:23.238Z,66.75
2023-11-12T14:08:52.895Z,66.43
2023-11-12T14:11:22.242Z,66.63
2023-11-12T14:13:52.456Z,67.57
2023-11-12T14:16:24.656Z,67.75
2023-11-12T14:18:54.886Z,68.22
2023-11-12T14:21:23.900Z,69.77
2023-11-12T14:23:52.344Z,70.99
2023-11-12T14:26:21.307Z,71.97
2023-11-12T14:28:53.908Z,72.18
2023-11-12T14:31:23.905Z,69.80
2023-11-12T14:33:52.512Z,68.31
2023-11-12T14:36:20.937Z,70.04
2023-11-12T14:38:49.769Z,72.41
2023-11-12T14:41:20.047Z,73.95
2023-11-12T14:43:49.513Z,73.76
2023-11-12T14:46:21.073Z,72.66
2023-11-12T14:48:51.127Z,75.85
2023-11-12T14:51:19.740Z,76.67
2023-11-12T14:53:57.174Z,83.50
2023-11-12T14:56:32.583Z,76.70
2023-11-12T14:59:01.091Z,73.27
2023-11-12T15:01:29.506Z,78.00
2023-11-12T15:03:59.676Z,72.87
2023-11-12T15:06:28.647Z,76.75
2023-11-12T15:08:57.944Z,77.91
2023-11-12T15:11:26.342Z,76.79
2023-11-12T15:13:54.740Z,80.34
2023-11-12T15:16:26.783Z,85.19
2023-11-12T15:18:55.382Z,86.94
2023-11-12T15:21:25.536Z,92.64
2023-11-12T15:23:54.576Z,94.91
2023-11-12T15:26:22.938Z,96.92
2023-11-12T15:28:52.205Z,95.28
2023-11-12T15:31:20.929Z,95.84
2023-11-12T15:33:49.637Z,97.64
2023-11-12T15:36:18.148Z,98.00
2023-11-12T15:38:48.037Z,96.17
2023-11-12T15:41:16.510Z,100.00
2023-11-12T15:43:44.842Z,100.00
2023-11-12T15:46:14.102Z,100.00
2023-11-12T15:48:42.992Z,100.00
2023-11-12T15:51:11.451Z,99.18
2023-11-12T15:53:39.814Z,99.48
2023-11-12T15:56:10.530Z,100.00
2023-11-12T15:58:39.012Z,100.00
2023-11-12T16:01:08.055Z,99.79
2023-11-12T16:03:38.183Z,99.15
2023-11-12T16:06:07.244Z,99.65
2023-11-12T16:08:37.755Z,99.59
2023-11-12T16:11:07.242Z,100.00
2023-11-12T16:13:37.169Z,100.00
2023-11-12T16:16:07.083Z,100.00
2023-11-12T16:18:35.632Z,100.00
2023-11-12T16:21:06.459Z,100.00
2023-11-12T16:23:34.816Z,100.00
2023-11-12T16:26:03.236Z,100.00
2023-11-12T16:28:31.848Z,100.00
2023-11-12T16:31:05.148Z,100.00
2023-11-12T16:33:33.792Z,100.00
2023-11-12T16:36:02.176Z,100.00
2023-11-12T16:38:32.565Z,100.00
2023-11-12T16:41:00.940Z,100.00
2023-11-12T16:43:29.332Z,98.88
2023-11-12T16:45:59.495Z,99.85
2023-11-12T16:48:29.530Z,99.13
2023-11-12T16:50:58.070Z,95.17
2023-11-12T16:53:26.517Z,96.27
2023-11-12T16:55:55.475Z,96.30
2023-11-12T16:58:23.937Z,95.91
2023-11-12T17:00:53.089Z,95.31
2023-11-12T17:03:23.167Z,94.73
2023-11-12T17:05:53.142Z,94.94
2023-11-12T17:08:21.552Z,95.74
2023-11-12T17:10:49.879Z,97.21
2023-11-12T17:13:18.429Z,99.81
2023-11-12T17:15:46.835Z,100.00
2023-11-12T17:18:16.339Z,100.00
2023-11-12T17:20:45.085Z,99.23
2023-11-12T17:23:15.021Z,98.17
2023-11-12T17:25:43.447Z,98.08
2023-11-12T17:28:12.419Z,97.78
2023-11-12T17:30:40.811Z,98.10
2023-11-12T17:33:09.281Z,97.50
2023-11-12T17:35:40.170Z,97.64
2023-11-12T17:38:08.742Z,98.02
2023-11-12T17:40:38.665Z,97.73
2023-11-12T17:43:07.094Z,97.06
2023-11-12T17:45:35.567Z,96.04
2023-11-12T17:48:05.073Z,96.49
2023-11-12T17:50:34.268Z,95.95
2023-11-12T17:53:02.749Z,99.34
2023-11-12T17:55:31.276Z,99.57
2023-11-12T17:58:01.240Z,99.48
2023-11-12T18:00:30.586Z,100.00
2023-11-12T18:02:59.209Z,100.00
2023-11-12T18:05:27.925Z,100.00
2023-11-12T18:07:56.514Z,100.00
2023-11-12T18:10:24.979Z,100.00
2023-11-12T18:12:53.385Z,100.00
2023-11-12T18:15:23.224Z,100.00
2023-11-12T18:17:51.765Z,100.00
2023-11-12T18:20:20.692Z,100.00
2023-11-12T18:22:49.176Z,100.00
2023-11-12T18:25:18.066Z,100.00
2023-11-12T18:27:46.639Z,100.00
2023-11-12T18:30:16.777Z,100.00
2023-11-12T18:32:46.610Z,100.00
2023-11-12T18:35:15.310Z,100.00
2023-11-12T18:37:43.690Z,100.00
2023-11-12T18:40:17.017Z,100.00
2023-11-12T18:42:45.897Z,100.00
2023-11-12T18:45:17.638Z,100.00
2023-11-12T18:47:48.199Z,100.00
2023-11-12T18:50:19.406Z,100.00
2023-11-12T18:52:48.428Z,100.00
2023-11-12T18:55:17.066Z,100.00
2023-11-12T18:57:46.382Z,100.00
2023-11-12T19:00:16.475Z,100.00
2023-11-12T19:02:45.005Z,100.00
2023-11-12T19:05:15.067Z,100.00
2023-11-12T19:07:44.944Z,100.00
2023-11-12T19:10:13.476Z,100.00
2023-11-12T19:12:42.995Z,100.00
2023-11-12T19:15:13.563Z,100.00
2023-11-12T19:17:45.317Z,100.00
2023-11-12T19:20:16.714Z,100.00
2023-11-12T19:22:45.858Z,100.00
2023-11-12T19:25:16.208Z,100.00
2023-11-12T19:27:45.717Z,100.00
2023-11-12T19:30:16.448Z,100.00
2023-11-12T19:32:46.467Z,100.00
2023-11-12T19:35:19.975Z,100.00
2023-11-12T19:37:48.464Z,100.00
2023-11-12T19:40:19.142Z,100.00
2023-11-12T19:42:50.294Z,100.00
2023-11-12T19:45:20.740Z,100.00
2023-11-12T19:47:53.465Z,100.00
2023-11-12T19:50:24.543Z,100.00
2023-11-12T19:52:53.163Z,100.00
2023-11-12T19:55:22.578Z,100.00
2023-11-12T19:57:53.972Z,100.00
2023-11-12T20:00:23.494Z,100.00
2023-11-12T20:02:52.966Z,100.00
2023-11-12T20:05:23.365Z,100.00
2023-11-12T20:07:52.098Z,100.00
2023-11-12T20:10:20.924Z,100.00
2023-11-12T20:12:51.087Z,100.00
2023-11-12T20:15:20.614Z,100.00
2023-11-12T20:17:49.598Z,100.00
2023-11-12T20:20:18.012Z,100.00
2023-11-12T20:22:47.925Z,100.00
2023-11-12T20:25:16.609Z,100.00
2023-11-12T20:27:46.258Z,100.00
2023-11-12T20:30:16.443Z,100.00
2023-11-12T20:32:45.213Z,100.00
2023-11-12T20:35:13.945Z,100.00
2023-11-12T20:37:44.702Z,100.00
2023-11-12T20:40:15.486Z,100.00
2023-11-12T20:42:44.504Z,100.00
2023-11-12T20:45:18.548Z,100.00
2023-11-12T20:47:52.260Z,100.00
2023-11-12T20:50:21.187Z,100.00
2023-11-12T20:52:50.501Z,100.00
2023-11-12T20:55:20.494Z,100.00
2023-11-12T20:57:51.105Z,100.00
2023-11-12T21:00:22.635Z,100.00
2023-11-12T21:02:52.725Z,100.00
2023-11-12T21:05:22.154Z,100.00
2023-11-12T21:07:50.998Z,100.00
2023-11-12T21:10:22.744Z,100.00
2023-11-12T21:12:51.499Z,100.00
2023-11-12T21:15:20.177Z,100.00
2023-11-12T21:17:48.733Z,100.00
2023-11-12T21:20:18.437Z,100.00
2023-11-12T21:22:46.932Z,100.00
2023-11-12T21:25:18.427Z,100.00
2023-11-12T21:27:48.743Z,100.00
2023-11-12T21:30:22.605Z,100.00
2023-11-12T21:32:51.195Z,100.00
2023-11-12T21:35:21.099Z,100.00
2023-11-12T21:37:49.687Z,100.00
2023-11-12T21:40:18.955Z,100.00
2023-11-12T21:42:48.910Z,100.00
2023-11-12T21:45:17.511Z,100.00
2023-11-12T21:47:47.054Z,100.00
2023-11-12T21:50:17.245Z,100.00
2023-11-12T21:52:46.142Z,100.00
2023-11-12T21:55:14.873Z,100.00
2023-11-12T21:57:44.006Z,100.00
2023-11-12T22:00:15.882Z,100.00
2023-11-12T22:02:44.431Z,100.00
2023-11-12T22:05:13.693Z,100.00
2023-11-12T22:07:42.478Z,100.00
2023-11-12T22:10:13.410Z,100.00
2023-11-12T22:12:42.173Z,100.00
2023-11-12T22:15:14.902Z,100.00
2023-11-12T22:17:48.725Z,100.00
2023-11-12T22:20:18.620Z,100.00
2023-11-12T22:22:48.536Z,100.00
2023-11-12T22:25:17.827Z,100.00
2023-11-12T22:27:47.823Z,100.00
2023-11-12T22:30:17.386Z,100.00
2023-11-12T22:32:50.047Z,100.00
2023-11-12T22:35:19.238Z,100.00
2023-11-12T22:37:48.494Z,100.00
2023-11-12T22:40:19.060Z,100.00
2023-11-12T22:42:47.659Z,100.00
2023-11-12T22:45:16.843Z,100.00
2023-11-12T22:47:48.366Z,100.00
2023-11-12T22:50:18.797Z,100.00
2023-11-12T22:52:47.434Z,100.00
2023-11-12T22:55:16.366Z,100.00
2023-11-12T22:57:45.339Z,100.00
2023-11-12T23:02:58.903Z,100.00
2023-11-12T23:05:27.500Z,100.00
2023-11-12T23:07:55.834Z,100.00
2023-11-12T23:10:25.180Z,100.00
2023-11-12T23:12:53.766Z,100.00
2023-11-12T23:15:22.638Z,100.00
2023-11-12T23:17:51.137Z,100.00
2023-11-12T23:20:22.804Z,100.00
2023-11-12T23:22:51.325Z,100.00
2023-11-12T23:25:20.610Z,100.00
2023-11-12T23:27:49.681Z,100.00
2023-11-12T23:30:18.606Z,100.00
2023-11-12T23:32:47.113Z,100.00
2023-11-12T23:35:15.947Z,100.00
2023-11-12T23:37:45.783Z,100.00
2023-11-12T23:40:16.256Z,100.00
2023-11-12T23:42:44.691Z,100.00
2023-11-12T23:45:13.374Z,100.00
2023-11-12T23:47:42.191Z,100.00
2023-11-12T23:50:11.606Z,100.00
2023-11-12T23:52:39.998Z,100.00
2023-11-12T23:55:11.525Z,100.00
2023-11-12T23:57:41.905Z,100.00
